Time;durP1;ratioP1;P1;durP2;ratioP2;P2;SDS_P1;SDS_P2;PMS_P1;PMS_P2;Temp;Humidity;BMP_temperature;BMP_pressure;BME280_temperature;BME280_humidity;BME280_pressure;Samples;Min_cycle;Max_cycle;Signal;HPM_P1;HPM_P2
2023/08/04 00:00:09;;;;;;;7.30;2.50;;;17.20;99.90;;;;;;4992780;28;20081;-65
2023/08/04 00:02:38;;;;;;;10.65;2.55;;;17.20;99.90;;;;;;4992686;28;20045;-66
2023/08/04 00:05:06;;;;;;;5.55;2.45;;;17.20;99.90;;;;;;5018804;22;20044;-66
2023/08/04 00:07:33;;;;;;;5.32;2.33;;;17.20;99.90;;;;;;5030949;28;20073;-65
2023/08/04 00:09:58;;;;;;;5.78;2.22;;;17.10;99.90;;;;;;5035162;28;20038;-66
2023/08/04 00:12:24;;;;;;;6.57;2.63;;;17.10;99.90;;;;;;5032952;28;20450;-66
2023/08/04 00:14:50;;;;;;;5.05;2.33;;;17.10;99.90;;;;;;5034840;28;20045;-66
2023/08/04 00:17:16;;;;;;;5.35;2.00;;;17.10;99.90;;;;;;5031807;28;20045;-66
2023/08/04 00:19:42;;;;;;;7.03;2.40;;;17.10;99.90;;;;;;5013808;28;20439;-66
2023/08/04 00:22:08;;;;;;;7.72;2.50;;;17.10;99.90;;;;;;5015783;28;20049;-66
2023/08/04 00:24:34;;;;;;;6.20;2.30;;;17.10;99.90;;;;;;5012678;28;20037;-66
2023/08/04 00:27:01;;;;;;;4.53;2.45;;;17.10;99.90;;;;;;5008773;28;20045;-66
2023/08/04 00:29:27;;;;;;;5.85;2.25;;;17.00;99.90;;;;;;5010415;28;20263;-66
2023/08/04 00:31:52;;;;;;;7.07;2.60;;;17.00;99.90;;;;;;5005985;28;20148;-66
2023/08/04 00:34:18;;;;;;;5.22;2.78;;;17.00;99.90;;;;;;5012543;28;20516;-66
2023/08/04 00:36:45;;;;;;;6.32;2.47;;;17.00;99.90;;;;;;5014997;28;20048;-66
2023/08/04 00:39:11;;;;;;;6.22;2.63;;;17.00;99.90;;;;;;5015486;28;20045;-66
2023/08/04 00:41:37;;;;;;;7.80;2.58;;;17.00;99.90;;;;;;5013717;28;20030;-66
2023/08/04 00:44:03;;;;;;;6.82;2.20;;;17.00;99.90;;;;;;5007531;28;20045;-66
2023/08/04 00:46:29;;;;;;;7.25;2.33;;;17.00;99.90;;;;;;5003343;28;20130;-65
2023/08/04 00:48:57;;;;;;;5.32;2.38;;;17.00;99.90;;;;;;5028826;28;20116;-66
2023/08/04 00:51:23;;;;;;;5.53;2.17;;;17.00;99.90;;;;;;5031291;28;20427;-66
2023/08/04 00:53:49;;;;;;;4.72;2.40;;;16.90;99.90;;;;;;4995676;28;20034;-65
2023/08/04 00:56:15;;;;;;;7.50;2.25;;;16.90;99.90;;;;;;5013241;28;20034;-65
2023/08/04 00:58:41;;;;;;;8.82;2.72;;;16.90;99.90;;;;;;5015073;28;20037;-66
2023/08/04 01:01:06;;;;;;;8.75;2.58;;;16.90;99.90;;;;;;5012946;28;20121;-66
2023/08/04 01:03:33;;;;;;;6.13;2.55;;;16.80;99.90;;;;;;5013923;28;20030;-66
2023/08/04 01:06:14;;;;;;;5.68;2.38;;;16.70;99.90;;;;;;5027564;28;20033;-66
2023/08/04 01:08:51;;;;;;;6.40;2.45;;;16.70;99.90;;;;;;4995296;28;20431;-66
2023/08/04 01:11:19;;;;;;;8.18;2.58;;;16.70;99.90;;;;;;4995403;28;20058;-66
2023/08/04 01:13:47;;;;;;;4.25;2.22;;;16.70;99.90;;;;;;5011884;28;20095;-66
2023/08/04 01:16:12;;;;;;;6.75;2.40;;;16.70;99.90;;;;;;5008973;28;20030;-66
2023/08/04 01:18:38;;;;;;;11.30;2.50;;;16.60;99.90;;;;;;5025483;28;20033;-66
2023/08/04 01:21:05;;;;;;;5.20;2.17;;;16.60;99.90;;;;;;5025734;28;20063;-65
2023/08/04 01:23:31;;;;;;;6.35;2.60;;;16.60;99.90;;;;;;5006555;28;20076;-66
2023/08/04 01:25:57;;;;;;;8.43;2.53;;;16.60;99.90;;;;;;5022765;28;20050;-66
2023/08/04 01:28:24;;;;;;;4.50;2.42;;;16.60;99.90;;;;;;5003622;28;20046;-65
2023/08/04 01:30:54;;;;;;;4.53;2.40;;;16.60;99.90;;;;;;5009306;28;20053;-66
2023/08/04 01:33:21;;;;;;;7.27;2.40;;;16.50;99.90;;;;;;5013249;28;20033;-66
2023/08/04 01:35:47;;;;;;;8.60;2.53;;;16.50;99.90;;;;;;5011383;28;20178;-65
2023/08/04 01:38:13;;;;;;;6.60;2.40;;;16.40;99.90;;;;;;5012716;28;20120;-66
2023/08/04 01:40:38;;;;;;;6.60;2.20;;;16.30;99.90;;;;;;5003739;28;20516;-66
2023/08/04 01:43:04;;;;;;;5.45;2.42;;;16.30;99.90;;;;;;5015628;28;20034;-66
2023/08/04 01:45:30;;;;;;;12.93;2.72;;;16.30;99.90;;;;;;5014766;28;20403;-66
2023/08/04 01:47:56;;;;;;;5.63;2.65;;;16.20;99.90;;;;;;5012086;28;20045;-66
2023/08/04 01:50:21;;;;;;;6.80;2.65;;;16.10;99.90;;;;;;5022021;28;20034;-66
2023/08/04 01:52:47;;;;;;;5.90;2.40;;;16.10;99.90;;;;;;5008519;28;20046;-66
2023/08/04 01:55:13;;;;;;;5.72;2.55;;;16.10;99.90;;;;;;5013042;28;20042;-66
2023/08/04 01:57:39;;;;;;;8.02;3.10;;;16.10;99.90;;;;;;5019270;28;20091;-66
2023/08/04 02:00:06;;;;;;;3.75;2.28;;;16.10;99.90;;;;;;5008250;28;20034;-66
2023/08/04 02:02:32;;;;;;;6.22;2.28;;;16.00;99.90;;;;;;5009778;28;20038;-66
2023/08/04 02:04:57;;;;;;;6.20;2.17;;;16.00;99.90;;;;;;5004822;28;20050;-66
2023/08/04 02:07:23;;;;;;;6.57;2.22;;;16.00;99.90;;;;;;5019881;28;20061;-66
2023/08/04 02:09:48;;;;;;;4.55;2.28;;;16.00;99.90;;;;;;5013906;28;20045;-66
2023/08/04 02:12:14;;;;;;;6.35;2.22;;;16.00;99.90;;;;;;5010343;28;20373;-66
2023/08/04 02:14:40;;;;;;;7.55;2.35;;;15.90;99.90;;;;;;5008612;28;20038;-66
2023/08/04 02:17:05;;;;;;;5.90;1.90;;;15.90;99.90;;;;;;5011161;28;20114;-66
2023/08/04 02:19:31;;;;;;;6.40;2.28;;;15.90;99.90;;;;;;5011376;28;20077;-66
2023/08/04 02:21:56;;;;;;;10.85;2.45;;;15.90;99.90;;;;;;5012040;28;20045;-66
2023/08/04 02:24:22;;;;;;;5.65;2.25;;;15.90;99.90;;;;;;5008175;28;20041;-66
2023/08/04 02:26:48;;;;;;;5.82;2.25;;;15.90;99.90;;;;;;5010859;28;20510;-66
2023/08/04 02:29:13;;;;;;;9.93;2.70;;;15.80;99.90;;;;;;5007815;28;20112;-66
2023/08/04 02:31:40;;;;;;;6.68;2.50;;;15.80;99.90;;;;;;5007037;28;20042;-66
2023/08/04 02:34:06;;;;;;;5.82;2.58;;;15.80;99.90;;;;;;5008443;28;20065;-66
2023/08/04 02:36:32;;;;;;;6.05;2.22;;;15.80;99.90;;;;;;5006474;28;20479;-65
2023/08/04 02:38:58;;;;;;;8.23;2.58;;;15.80;99.90;;;;;;5018208;28;20081;-66
2023/08/04 02:41:23;;;;;;;8.93;2.38;;;15.90;99.90;;;;;;5010548;28;20083;-66
2023/08/04 02:43:49;;;;;;;9.00;2.33;;;15.80;99.90;;;;;;5012499;28;20168;-66
2023/08/04 02:46:14;;;;;;;5.75;2.50;;;15.80;99.90;;;;;;4999821;28;20030;-66
2023/08/04 02:48:40;;;;;;;9.38;3.83;;;15.80;99.90;;;;;;5011911;28;20565;-66
2023/08/04 02:51:09;;;;;;;4.78;2.53;;;15.80;99.90;;;;;;4995794;28;20049;-66
2023/08/04 02:53:38;;;;;;;11.50;2.72;;;15.80;99.90;;;;;;5010301;28;20046;-65
2023/08/04 02:56:10;;;;;;;5.32;2.78;;;15.90;99.90;;;;;;5011379;28;20068;-66
2023/08/04 02:58:37;;;;;;;8.55;3.13;;;15.90;99.90;;;;;;5008248;28;20403;-66
2023/08/04 03:01:03;;;;;;;7.95;3.25;;;15.90;99.90;;;;;;5011298;28;20045;-66
2023/08/04 03:03:30;;;;;;;8.00;2.47;;;15.90;99.90;;;;;;4998015;28;20472;-66
2023/08/04 03:05:57;;;;;;;6.55;2.97;;;15.90;99.90;;;;;;4996261;28;20041;-66
2023/08/04 03:08:23;;;;;;;8.35;2.67;;;15.90;99.90;;;;;;5011606;28;20100;-66
2023/08/04 03:10:49;;;;;;;7.65;2.78;;;15.90;99.90;;;;;;5014369;28;20042;-65
2023/08/04 03:13:14;;;;;;;4.57;2.05;;;15.90;99.90;;;;;;5011663;28;20034;-66
2023/08/04 03:15:40;;;;;;;5.53;2.80;;;15.90;99.90;;;;;;5010976;28;20046;-66
2023/08/04 03:18:05;;;;;;;5.60;2.40;;;15.90;99.90;;;;;;5012206;28;20491;-65
2023/08/04 03:20:37;;;;;;;4.30;2.35;;;16.00;99.90;;;;;;4997593;28;20535;-66
2023/08/04 03:23:02;;;;;;;7.45;2.90;;;15.90;99.90;;;;;;5002951;28;20042;-65
2023/08/04 03:25:28;;;;;;;6.25;2.85;;;16.00;99.90;;;;;;5024467;28;20052;-65
2023/08/04 03:27:54;;;;;;;6.38;2.42;;;15.90;99.90;;;;;;5001744;28;20116;-66
2023/08/04 03:30:20;;;;;;;7.20;2.90;;;15.90;99.90;;;;;;5007663;28;20033;-66
2023/08/04 03:32:45;;;;;;;9.60;2.75;;;16.00;99.90;;;;;;5014909;28;20111;-66
2023/08/04 03:35:11;;;;;;;3.90;2.40;;;16.00;99.90;;;;;;5023435;28;20045;-66
2023/08/04 03:37:36;;;;;;;6.07;2.70;;;16.00;99.90;;;;;;5011607;28;20042;-66
2023/08/04 03:40:02;;;;;;;6.30;2.67;;;16.00;99.90;;;;;;5008411;28;20037;-66
2023/08/04 03:42:28;;;;;;;6.72;2.72;;;16.00;99.90;;;;;;5014364;28;20124;-66
2023/08/04 03:44:54;;;;;;;6.05;2.25;;;16.00;99.90;;;;;;5028743;28;20116;-66
2023/08/04 03:47:19;;;;;;;5.53;2.40;;;16.00;99.90;;;;;;5021611;28;20440;-66
2023/08/04 03:49:45;;;;;;;7.65;2.53;;;16.00;99.90;;;;;;5011767;28;20041;-66
2023/08/04 03:52:10;;;;;;;7.35;2.30;;;16.10;99.90;;;;;;5012277;28;20038;-66
2023/08/04 03:54:36;;;;;;;5.18;2.05;;;16.10;99.90;;;;;;5001549;28;20034;-66
2023/08/04 03:57:02;;;;;;;5.32;2.33;;;16.10;99.90;;;;;;5010140;28;20122;-66
2023/08/04 03:59:28;;;;;;;7.57;2.25;;;16.00;99.90;;;;;;5017523;28;20187;-66
2023/08/04 04:01:53;;;;;;;4.90;2.25;;;16.10;99.90;;;;;;5008851;28;20042;-65
2023/08/04 04:04:19;;;;;;;5.60;2.20;;;16.00;99.90;;;;;;5012298;28;20030;-66
2023/08/04 04:06:45;;;;;;;4.28;2.20;;;16.10;99.90;;;;;;5010835;28;20073;-66
2023/08/04 04:09:11;;;;;;;4.45;1.98;;;16.10;99.90;;;;;;5008124;28;20042;-66
2023/08/04 04:11:37;;;;;;;4.20;2.00;;;16.10;99.90;;;;;;5003214;28;20082;-66
2023/08/04 04:14:02;;;;;;;7.50;2.38;;;16.10;99.90;;;;;;5016356;28;20069;-66
2023/08/04 04:16:30;;;;;;;4.85;2.03;;;16.10;99.90;;;;;;5010876;28;20045;-66
2023/08/04 04:18:56;;;;;;;2.00;1.77;;;16.00;99.90;;;;;;5010497;28;20050;-66
2023/08/04 04:21:21;;;;;;;7.68;2.25;;;16.10;99.90;;;;;;5007072;28;20076;-66
2023/08/04 04:23:47;;;;;;;6.60;2.15;;;16.00;99.90;;;;;;5007789;28;20041;-66
2023/08/04 04:26:14;;;;;;;4.00;2.17;;;16.10;99.90;;;;;;5011161;28;20042;-66
2023/08/04 04:28:39;;;;;;;8.60;2.45;;;16.00;99.90;;;;;;5008928;28;20044;-65
2023/08/04 04:31:05;;;;;;;6.32;2.08;;;16.10;99.90;;;;;;5006867;28;20450;-65
2023/08/04 04:33:31;;;;;;;5.55;2.22;;;16.10;99.90;;;;;;5011458;28;20048;-66
2023/08/04 04:35:56;;;;;;;4.47;2.30;;;16.10;99.90;;;;;;5010444;28;20038;-66
2023/08/04 04:38:28;;;;;;;4.88;1.77;;;16.10;99.90;;;;;;5011661;28;20113;-66
2023/08/04 04:40:58;;;;;;;4.43;2.10;;;16.10;99.90;;;;;;5002125;28;20066;-66
2023/08/04 04:43:24;;;;;;;3.25;2.25;;;16.10;99.90;;;;;;5008083;28;20034;-66
2023/08/04 04:45:53;;;;;;;3.95;2.08;;;16.20;99.90;;;;;;5001533;28;20035;-67
2023/08/04 04:48:19;;;;;;;5.60;2.30;;;16.10;99.90;;;;;;5006854;28;20041;-66
2023/08/04 04:50:45;;;;;;;6.47;2.58;;;16.20;99.90;;;;;;5004879;28;20118;-66
2023/08/04 04:53:12;;;;;;;6.80;2.55;;;16.20;99.90;;;;;;5007647;28;20446;-66
2023/08/04 04:55:37;;;;;;;6.30;2.55;;;16.20;99.90;;;;;;5012626;28;20547;-65
2023/08/04 04:58:03;;;;;;;6.55;2.80;;;16.20;99.90;;;;;;5009836;28;20065;-66
2023/08/04 05:00:31;;;;;;;4.95;2.15;;;16.20;99.90;;;;;;5013420;28;20041;-66
2023/08/04 05:02:57;;;;;;;7.85;2.55;;;16.20;99.90;;;;;;5006926;28;20480;-66
2023/08/04 05:05:22;;;;;;;5.53;2.53;;;16.20;99.90;;;;;;5017430;28;20045;-65
2023/08/04 05:07:48;;;;;;;6.88;2.80;;;16.20;99.90;;;;;;5014959;28;20037;-65
2023/08/04 05:10:14;;;;;;;7.75;2.50;;;16.20;99.90;;;;;;5013503;28;20502;-66
2023/08/04 05:12:39;;;;;;;7.75;2.83;;;16.30;99.90;;;;;;5015873;28;20096;-65
2023/08/04 05:15:06;;;;;;;4.25;2.28;;;16.30;99.90;;;;;;5023209;28;20518;-66
2023/08/04 05:17:31;;;;;;;4.43;2.10;;;16.30;99.90;;;;;;5014226;28;20038;-65
2023/08/04 05:19:57;;;;;;;3.10;2.00;;;16.30;99.90;;;;;;5012433;28;20042;-66
2023/08/04 05:22:22;;;;;;;3.92;2.22;;;16.30;99.90;;;;;;5012680;28;20563;-66
2023/08/04 05:24:48;;;;;;;4.55;2.40;;;16.30;99.90;;;;;;5010942;28;20064;-66
2023/08/04 05:27:14;;;;;;;5.13;2.30;;;16.30;99.90;;;;;;5013673;28;20115;-66
2023/08/04 05:29:39;;;;;;;4.07;2.30;;;16.30;99.90;;;;;;4995383;28;20161;-66
2023/08/04 05:32:05;;;;;;;5.68;2.40;;;16.30;99.90;;;;;;5007114;28;20408;-65
2023/08/04 05:34:31;;;;;;;3.88;2.10;;;16.30;99.90;;;;;;4998280;28;20043;-66
2023/08/04 05:36:57;;;;;;;4.15;2.25;;;16.30;99.90;;;;;;5013478;28;20053;-66
2023/08/04 05:39:22;;;;;;;4.20;2.05;;;16.30;99.90;;;;;;5008342;28;20034;-65
2023/08/04 05:41:49;;;;;;;9.10;2.45;;;16.30;99.90;;;;;;4994568;28;20038;-66
2023/08/04 05:44:15;;;;;;;4.47;2.00;;;16.40;99.90;;;;;;5008167;28;20515;-66
2023/08/04 05:46:40;;;;;;;3.33;2.25;;;16.40;99.90;;;;;;4998814;28;20125;-66
2023/08/04 05:49:06;;;;;;;6.75;2.40;;;16.40;99.90;;;;;;5001400;28;20038;-65
2023/08/04 05:51:32;;;;;;;6.28;2.17;;;16.40;99.90;;;;;;5017776;28;20029;-66
2023/08/04 05:53:57;;;;;;;5.50;2.20;;;16.30;99.90;;;;;;5022691;28;20056;-66
2023/08/04 05:56:23;;;;;;;4.88;2.35;;;16.30;99.90;;;;;;5028883;28;20052;-66
2023/08/04 05:58:49;;;;;;;4.35;2.25;;;16.30;99.90;;;;;;5013570;28;20044;-66
2023/08/04 06:01:14;;;;;;;6.85;2.10;;;16.30;99.90;;;;;;5013955;28;20238;-66
2023/08/04 06:03:40;;;;;;;3.40;2.20;;;16.30;99.90;;;;;;5013978;28;20044;-66
2023/08/04 06:06:05;;;;;;;4.45;2.90;;;16.40;99.90;;;;;;5022976;23;20045;-65
2023/08/04 06:08:31;;;;;;;6.00;2.60;;;16.30;99.90;;;;;;5009879;28;20061;-65
2023/08/04 06:10:58;;;;;;;4.68;2.45;;;16.40;99.90;;;;;;5011959;28;20034;-65
2023/08/04 06:13:23;;;;;;;5.53;1.95;;;16.50;99.90;;;;;;5013545;28;20117;-65
2023/08/04 06:15:49;;;;;;;4.05;2.53;;;16.50;99.90;;;;;;5011647;28;20129;-65
2023/08/04 06:18:15;;;;;;;4.05;2.00;;;16.50;99.90;;;;;;5013484;28;20042;-65
2023/08/04 06:20:40;;;;;;;7.93;2.05;;;16.60;99.90;;;;;;5013250;28;20117;-65
2023/08/04 06:23:06;;;;;;;3.80;1.98;;;16.70;99.90;;;;;;5013015;28;20042;-65
2023/08/04 06:25:32;;;;;;;4.88;2.30;;;16.70;99.90;;;;;;5012190;28;20073;-65
2023/08/04 06:27:58;;;;;;;3.05;1.92;;;16.80;99.90;;;;;;5012864;28;20404;-65
2023/08/04 06:30:25;;;;;;;6.95;2.45;;;16.90;99.90;;;;;;5005064;28;20443;-65
2023/08/04 06:32:51;;;;;;;6.43;1.98;;;16.90;99.90;;;;;;5007719;28;20057;-65
2023/08/04 06:35:17;;;;;;;5.38;1.95;;;17.00;99.90;;;;;;5009051;28;20116;-65
2023/08/04 06:37:42;;;;;;;4.82;2.25;;;17.10;99.90;;;;;;5009728;28;20180;-65
2023/08/04 06:40:09;;;;;;;5.95;1.92;;;17.10;99.90;;;;;;5009336;28;20038;-65
2023/08/04 06:42:34;;;;;;;5.60;1.80;;;17.10;99.90;;;;;;5022817;28;20044;-65
2023/08/04 06:45:01;;;;;;;3.08;1.67;;;17.10;99.90;;;;;;4995498;28;20030;-65
2023/08/04 06:47:27;;;;;;;5.00;1.80;;;17.20;99.90;;;;;;5006245;28;20423;-65
2023/08/04 06:49:53;;;;;;;5.05;2.03;;;17.20;99.90;;;;;;5000625;28;20034;-65
2023/08/04 06:52:18;;;;;;;3.75;1.73;;;17.20;99.90;;;;;;5002241;28;20069;-65
2023/08/04 06:54:44;;;;;;;7.07;1.98;;;17.20;99.90;;;;;;5009278;28;20044;-65
2023/08/04 06:57:10;;;;;;;4.53;2.00;;;17.30;99.90;;;;;;5012485;28;20404;-65
2023/08/04 06:59:36;;;;;;;4.25;1.55;;;17.40;99.90;;;;;;5012512;28;20030;-65
2023/08/04 07:02:02;;;;;;;5.03;1.50;;;17.30;99.90;;;;;;5008899;28;20041;-65
2023/08/04 07:04:27;;;;;;;4.00;1.52;;;17.40;99.90;;;;;;5010689;28;20065;-65
2023/08/04 07:06:54;;;;;;;3.95;1.80;;;17.40;99.90;;;;;;5011761;28;20483;-65
2023/08/04 07:09:20;;;;;;;4.72;2.20;;;17.40;99.90;;;;;;5012369;28;20053;-64
2023/08/04 07:11:46;;;;;;;5.50;1.88;;;17.50;99.90;;;;;;5009128;28;20033;-64
2023/08/04 07:14:11;;;;;;;3.85;1.58;;;17.50;99.90;;;;;;5010775;28;20459;-64
2023/08/04 07:16:37;;;;;;;4.95;2.17;;;17.50;99.90;;;;;;5010003;28;20068;-64
2023/08/04 07:19:02;;;;;;;3.75;1.75;;;17.50;99.90;;;;;;5011273;28;20125;-64
2023/08/04 07:21:28;;;;;;;5.20;1.75;;;17.60;99.90;;;;;;5011571;28;20395;-64
2023/08/04 07:23:54;;;;;;;2.20;1.60;;;17.60;99.90;;;;;;5004394;28;20120;-64
2023/08/04 07:26:19;;;;;;;4.18;1.85;;;17.60;99.90;;;;;;5009055;28;20042;-65
2023/08/04 07:28:45;;;;;;;4.53;1.90;;;17.70;99.90;;;;;;5009821;28;21324;-64
2023/08/04 07:31:11;;;;;;;4.25;1.60;;;17.70;99.90;;;;;;5011691;28;20111;-64
2023/08/04 07:33:37;;;;;;;3.40;1.50;;;17.70;99.90;;;;;;5010110;28;20038;-64
2023/08/04 07:36:03;;;;;;;4.20;1.65;;;17.80;99.90;;;;;;5010321;28;20099;-64
2023/08/04 07:38:30;;;;;;;4.32;1.30;;;17.80;99.90;;;;;;5011036;28;20079;-64
2023/08/04 07:40:56;;;;;;;3.05;1.70;;;17.90;99.90;;;;;;5010709;28;20038;-64
2023/08/04 07:43:23;;;;;;;1.65;1.40;;;17.90;99.90;;;;;;5009950;28;20041;-64
2023/08/04 07:45:49;;;;;;;3.85;1.60;;;18.00;99.90;;;;;;5009524;28;20136;-63
2023/08/04 07:48:14;;;;;;;3.25;1.27;;;18.00;99.90;;;;;;5003803;28;20128;-63
2023/08/04 07:50:43;;;;;;;4.30;1.60;;;18.10;99.90;;;;;;5009448;28;20510;-63
2023/08/04 07:53:09;;;;;;;3.85;1.38;;;18.20;99.90;;;;;;5003657;28;20149;-64
2023/08/04 07:55:36;;;;;;;1.85;1.23;;;18.30;99.90;;;;;;5024587;28;20187;-64
2023/08/04 07:58:09;;;;;;;3.38;1.48;;;18.30;99.90;;;;;;5008760;28;20091;-64
2023/08/04 08:00:35;;;;;;;1.90;1.35;;;18.40;99.90;;;;;;5010785;28;20038;-64
2023/08/04 08:03:01;;;;;;;3.35;1.15;;;18.50;99.90;;;;;;5023455;28;20484;-63
2023/08/04 08:05:28;;;;;;;3.10;1.45;;;18.50;99.90;;;;;;5007869;28;20049;-63
2023/08/04 08:07:54;;;;;;;3.42;1.40;;;18.60;99.90;;;;;;5002462;28;20042;-64
2023/08/04 08:10:19;;;;;;;2.67;1.27;;;18.60;99.90;;;;;;5007485;28;20049;-63
2023/08/04 08:12:45;;;;;;;5.32;1.48;;;18.70;99.90;;;;;;5007412;28;20041;-63
2023/08/04 08:15:11;;;;;;;3.70;1.30;;;18.80;99.90;;;;;;5010853;28;20627;-64
2023/08/04 08:17:37;;;;;;;3.03;1.60;;;18.80;99.90;;;;;;5010695;28;20046;-64
2023/08/04 08:20:04;;;;;;;4.47;1.40;;;19.00;99.90;;;;;;5011002;28;20052;-64
2023/08/04 08:22:30;;;;;;;2.30;1.30;;;19.00;99.90;;;;;;5010063;28;20038;-64
2023/08/04 08:24:56;;;;;;;3.22;1.38;;;19.10;99.90;;;;;;5008047;28;20030;-64
2023/08/04 08:27:23;;;;;;;4.45;2.00;;;19.00;99.90;;;;;;5010687;28;20427;-65
2023/08/04 08:29:53;;;;;;;3.10;1.40;;;19.00;99.90;;;;;;5013196;28;20096;-64
2023/08/04 08:32:19;;;;;;;2.40;1.42;;;18.90;99.90;;;;;;5013168;28;20038;-64
2023/08/04 08:34:45;;;;;;;4.03;1.38;;;18.80;99.90;;;;;;5013621;28;20451;-64
2023/08/04 08:37:10;;;;;;;4.65;1.30;;;18.80;99.90;;;;;;5014810;28;20411;-64
2023/08/04 08:39:36;;;;;;;3.15;1.30;;;18.80;99.90;;;;;;5013321;28;20810;-64
2023/08/04 08:42:02;;;;;;;3.17;1.20;;;18.80;99.90;;;;;;5004270;28;20037;-64
2023/08/04 08:44:28;;;;;;;3.97;1.30;;;18.80;99.90;;;;;;5014123;28;20030;-65
2023/08/04 08:46:54;;;;;;;2.33;1.20;;;18.80;99.90;;;;;;5013496;28;20029;-64
2023/08/04 08:49:44;;;;;;;2.08;1.33;;;18.90;99.90;;;;;;5014536;28;20550;-64
2023/08/04 08:52:10;;;;;;;2.67;1.40;;;18.90;99.90;;;;;;5014174;28;20125;-64
2023/08/04 08:54:39;;;;;;;2.33;1.38;;;19.00;99.90;;;;;;4998041;28;20117;-64
2023/08/04 08:57:05;;;;;;;2.58;1.33;;;19.10;99.90;;;;;;5011983;28;20081;-64
2023/08/04 08:59:32;;;;;;;4.70;1.45;;;19.30;99.90;;;;;;5013254;28;20038;-64
2023/08/04 09:02:00;;;;;;;3.53;1.40;;;19.50;99.90;;;;;;5007337;28;20104;-64
2023/08/04 09:04:27;;;;;;;3.25;1.20;;;19.50;99.90;;;;;;5012111;28;20052;-64
2023/08/04 09:06:56;;;;;;;4.65;1.38;;;19.40;99.90;;;;;;4999540;28;20388;-64
2023/08/04 09:09:22;;;;;;;2.22;1.35;;;19.30;99.90;;;;;;5006634;28;20046;-64
2023/08/04 09:11:48;;;;;;;3.72;1.50;;;19.30;99.90;;;;;;5010255;28;20085;-64
2023/08/04 09:14:15;;;;;;;2.50;1.00;;;19.30;99.90;;;;;;5003893;28;20577;-64
2023/08/04 09:16:42;;;;;;;3.83;1.13;;;19.30;99.90;;;;;;5012985;28;20069;-64
2023/08/04 09:19:09;;;;;;;1.65;1.33;;;19.50;99.90;;;;;;5012998;28;20713;-65
2023/08/04 09:21:36;;;;;;;2.97;1.20;;;19.60;99.90;;;;;;5010932;28;20049;-65
2023/08/04 09:24:03;;;;;;;5.68;1.48;;;19.70;99.90;;;;;;5010688;28;20073;-65
2023/08/04 09:26:41;;;;;;;2.28;1.30;;;19.70;99.90;;;;;;5009810;28;20060;-65
2023/08/04 09:29:07;;;;;;;2.38;1.15;;;19.80;99.90;;;;;;5012894;28;20088;-65
2023/08/04 09:31:40;;;;;;;4.32;1.70;;;19.60;99.90;;;;;;5012238;28;20451;-65
2023/08/04 09:34:07;;;;;;;7.10;2.20;;;19.50;99.90;;;;;;5011840;28;20140;-66
2023/08/04 09:36:47;;;;;;;4.10;1.50;;;19.40;99.90;;;;;;5011305;28;20037;-65
2023/08/04 09:39:14;;;;;;;2.83;0.98;;;19.20;99.90;;;;;;5012692;28;20431;-66
2023/08/04 09:41:46;;;;;;;1.52;0.73;;;18.90;99.90;;;;;;5009606;28;20042;-65
2023/08/04 09:44:14;;;;;;;2.30;0.82;;;18.60;99.90;;;;;;5011599;28;20042;-65
2023/08/04 09:46:48;;;;;;;2.08;0.93;;;18.40;99.90;;;;;;4996666;28;20523;-64
2023/08/04 09:49:14;;;;;;;2.17;0.90;;;18.30;99.90;;;;;;5002018;28;20044;-65
2023/08/04 09:51:41;;;;;;;1.02;0.80;;;18.10;99.90;;;;;;5003280;28;20105;-65
2023/08/04 09:54:07;;;;;;;1.80;0.90;;;18.10;99.90;;;;;;5010109;28;20033;-64
2023/08/04 09:56:33;;;;;;;2.33;0.80;;;18.10;99.90;;;;;;5008060;28;20050;-65
2023/08/04 09:58:59;;;;;;;1.02;0.70;;;18.00;99.90;;;;;;5011392;28;20554;-65
2023/08/04 10:01:25;;;;;;;1.77;0.70;;;17.90;99.90;;;;;;5011372;28;20037;-65
2023/08/04 10:03:55;;;;;;;2.65;0.73;;;17.90;99.90;;;;;;5006320;28;20076;-64
2023/08/04 10:06:21;;;;;;;0.95;0.60;;;18.00;99.90;;;;;;5010885;28;20113;-65
2023/08/04 10:08:49;;;;;;;1.83;0.68;;;18.00;99.90;;;;;;5012565;28;20065;-65
2023/08/04 10:11:15;;;;;;;1.83;0.70;;;18.00;99.90;;;;;;5010565;28;20034;-65
2023/08/04 10:13:43;;;;;;;1.17;0.70;;;18.10;99.90;;;;;;5010674;28;20044;-65
2023/08/04 10:16:12;;;;;;;1.10;0.88;;;18.20;99.90;;;;;;5009266;28;20038;-65
2023/08/04 10:18:51;;;;;;;0.85;0.75;;;18.30;99.90;;;;;;5011811;28;20034;-65
2023/08/04 10:21:27;;;;;;;3.30;0.98;;;18.40;99.90;;;;;;5007443;28;20034;-65
2023/08/04 10:23:53;;;;;;;1.80;0.80;;;18.50;99.90;;;;;;5010153;28;20065;-64
2023/08/04 10:26:19;;;;;;;3.45;1.08;;;18.50;99.90;;;;;;5018786;28;20033;-64
2023/08/04 10:29:03;;;;;;;1.98;1.20;;;18.80;99.90;;;;;;5009126;28;20128;-65
2023/08/04 10:31:50;;;;;;;3.15;1.25;;;19.00;99.90;;;;;;5001502;28;20046;-65
2023/08/04 10:34:22;;;;;;;3.20;1.25;;;19.20;99.90;;;;;;5005416;28;20049;-65
2023/08/04 10:36:53;;;;;;;4.85;1.50;;;19.40;99.90;;;;;;5012875;28;20061;-65
2023/08/04 10:39:29;;;;;;;3.08;1.50;;;19.60;99.90;;;;;;5008303;28;20038;-65
2023/08/04 10:41:55;;;;;;;4.45;1.90;;;19.70;99.90;;;;;;5011981;28;20551;-65
2023/08/04 10:44:28;;;;;;;5.18;2.00;;;19.90;99.90;;;;;;5008170;28;20037;-65
2023/08/04 10:46:59;;;;;;;3.85;1.70;;;20.10;99.90;;;;;;5008113;28;20077;-65
2023/08/04 10:49:25;;;;;;;2.75;1.42;;;20.20;99.90;;;;;;5011765;28;20052;-65
2023/08/04 10:51:52;;;;;;;3.50;1.35;;;20.30;99.90;;;;;;5011967;28;20559;-65
2023/08/04 10:54:18;;;;;;;4.00;1.90;;;20.40;99.90;;;;;;5009401;28;20069;-65
2023/08/04 10:56:46;;;;;;;2.90;1.40;;;20.70;99.90;;;;;;5011305;28;20074;-65
2023/08/04 10:59:11;;;;;;;3.97;1.70;;;20.90;99.90;;;;;;5012598;28;20038;-65
2023/08/04 11:01:37;;;;;;;6.38;1.70;;;20.90;99.90;;;;;;5011216;28;20542;-65
2023/08/04 11:04:03;;;;;;;3.78;1.90;;;20.80;99.90;;;;;;5025676;28;20037;-65
2023/08/04 11:06:28;;;;;;;4.63;1.77;;;20.50;99.90;;;;;;5006619;28;20112;-65
2023/08/04 11:08:55;;;;;;;3.15;2.00;;;20.20;99.90;;;;;;5007178;28;20046;-66
2023/08/04 11:11:21;;;;;;;3.67;2.10;;;19.90;99.90;;;;;;5006393;28;20117;-66
2023/08/04 11:13:47;;;;;;;5.53;2.47;;;19.60;99.90;;;;;;5008819;28;20129;-65
2023/08/04 11:16:16;;;;;;;5.40;1.95;;;19.50;99.90;;;;;;5009895;28;20482;-66
2023/08/04 11:18:42;;;;;;;7.78;2.60;;;19.50;99.90;;;;;;5010721;28;20042;-65
2023/08/04 11:21:08;;;;;;;2.42;1.48;;;19.40;99.90;;;;;;5011829;28;20743;-65
2023/08/04 11:23:34;;;;;;;6.15;1.63;;;19.40;99.90;;;;;;5010319;28;20030;-66
2023/08/04 11:26:00;;;;;;;4.38;2.33;;;19.50;99.90;;;;;;5008254;28;20042;-65
2023/08/04 11:28:26;;;;;;;4.30;1.90;;;19.70;99.90;;;;;;4999432;28;20472;-65
2023/08/04 11:31:02;;;;;;;4.28;2.15;;;19.80;99.90;;;;;;5007645;28;20100;-65
2023/08/04 11:33:27;;;;;;;5.22;1.70;;;20.10;99.90;;;;;;5012441;28;20106;-65
2023/08/04 11:35:53;;;;;;;2.25;1.42;;;20.30;99.90;;;;;;5010799;28;20429;-65
2023/08/04 11:38:18;;;;;;;2.22;1.40;;;20.50;99.90;;;;;;5007921;28;20507;-66
2023/08/04 11:40:59;;;;;;;2.97;1.33;;;20.70;99.90;;;;;;5005916;28;20476;-65
2023/08/04 11:43:25;;;;;;;4.17;1.50;;;20.90;99.90;;;;;;5009791;28;20116;-65
2023/08/04 11:45:51;;;;;;;3.60;1.33;;;21.00;99.90;;;;;;5010281;28;20776;-65
2023/08/04 11:48:17;;;;;;;2.67;1.40;;;21.00;99.90;;;;;;5011065;28;20117;-65
2023/08/04 11:50:43;;;;;;;5.47;1.67;;;20.90;99.90;;;;;;5010342;28;20044;-66
2023/08/04 11:53:14;;;;;;;4.95;1.73;;;20.80;99.90;;;;;;5000793;28;20590;-66
2023/08/04 11:55:55;;;;;;;5.50;1.73;;;20.70;99.90;;;;;;4997116;28;20503;-66
2023/08/04 11:58:40;;;;;;;6.35;1.80;;;20.50;99.90;;;;;;5002218;28;20034;-65
2023/08/04 12:01:24;;;;;;;2.95;1.40;;;20.20;99.90;;;;;;5007098;28;20069;-67
2023/08/04 12:03:49;;;;;;;5.10;1.90;;;19.80;99.90;;;;;;5013015;28;20440;-67
2023/08/04 12:06:22;;;;;;;5.38;1.98;;;19.50;99.90;;;;;;5064020;22;20197;-67
2023/08/04 12:08:55;;;;;;;3.72;1.45;;;19.30;99.90;;;;;;5065123;28;20111;-67
2023/08/04 12:11:23;;;;;;;6.95;1.90;;;19.20;99.90;;;;;;5069709;28;20056;-67
2023/08/04 12:13:49;;;;;;;5.70;2.03;;;19.20;99.90;;;;;;5069043;28;20529;-67
2023/08/04 12:16:17;;;;;;;4.10;1.83;;;19.00;99.90;;;;;;5061835;28;20040;-67
2023/08/04 12:18:44;;;;;;;4.78;1.90;;;19.00;99.90;;;;;;5056711;28;20135;-67
2023/08/04 12:21:10;;;;;;;4.88;1.70;;;19.00;99.90;;;;;;5045539;28;20088;-67
2023/08/04 12:23:37;;;;;;;4.53;1.70;;;19.10;99.90;;;;;;5048378;28;20029;-67
2023/08/04 12:26:04;;;;;;;4.68;2.03;;;19.10;99.90;;;;;;5045355;28;20124;-68
2023/08/04 12:28:30;;;;;;;3.90;1.75;;;19.30;99.90;;;;;;5053799;28;20045;-67
2023/08/04 12:30:55;;;;;;;4.05;2.10;;;19.30;99.90;;;;;;5055948;28;20037;-68
2023/08/04 12:33:21;;;;;;;3.15;2.03;;;19.50;99.90;;;;;;5057534;28;20064;-67
2023/08/04 12:35:46;;;;;;;3.60;1.77;;;19.60;99.90;;;;;;5053562;28;20383;-67
2023/08/04 12:38:12;;;;;;;5.88;1.65;;;19.80;99.90;;;;;;5047665;28;20419;-67
2023/08/04 12:40:38;;;;;;;3.35;1.80;;;19.90;99.90;;;;;;5051307;28;20048;-67
2023/08/04 12:43:04;;;;;;;7.90;1.90;;;19.90;99.90;;;;;;5044078;28;20041;-67